PDT,Max TemperatureF,Mean TemperatureF,Min TemperatureF,Max Dew PointF,MeanDew PointF,Min DewpointF,Max Humidity, Mean Humidity, Min Humidity, Max Sea Level PressureIn, Mean Sea Level PressureIn, Min Sea Level PressureIn, Max VisibilityMiles, Mean VisibilityMiles, Min VisibilityMiles, Max Wind SpeedMPH, Mean Wind SpeedMPH, Max Gust SpeedMPH,PrecipitationIn, CloudCover, Events, WindDirDegrees
2013-8-1,63,59,54,55,54,53,100,90,80,30.19,30.14,30.12,10,8,0,9,3,14,0.00,7,Fog,314
2013-8-2,62,57,52,54,53,52,100,86,72,30.14,30.08,30.01,10,6,0,15,6,21,0.00,6,Fog,326
2013-8-3,57,55,52,54,53,52,100,93,86,30.03,30.00,29.95,10,5,0,12,3,15,0.00,8,Fog,174
2013-8-4,56,54,52,54,52,51,100,93,86,30.01,29.99,29.97,10,3,0,10,3,15,0.00,8,Fog,202
2013-8-5,56,54,51,54,52,50,100,93,86,30.03,30.00,29.98,10,4,0,14,4,17,0.00,8,Fog,176
2013-8-6,57,54,50,52,50,48,100,89,77,30.07,30.02,29.98,10,5,0,15,7,18,0.00,8,Fog,172
2013-8-7,59,56,52,54,52,50,100,90,80,30.12,30.09,30.04,10,9,4,8,3,10,0.00,8,,216
2013-8-8,61,56,51,54,52,51,100,89,78,30.09,30.03,29.97,10,9,0,17,7,22,0.00,8,Fog-Rain-Thunderstorm,195
2013-8-9,59,56,52,54,53,52,100,90,80,30.00,29.95,29.93,10,5,0,13,4,15,0.01,7,Fog,190
2013-8-10,61,57,53,55,54,53,100,93,86,30.10,30.04,29.97,10,6,1,9,4,12,0.06,8,Rain,290
2013-8-11,62,58,54,56,55,53,100,89,78,30.09,30.07,30.04,10,6,1,10,2,13,0.00,7,,317
2013-8-12,62,59,55,54,54,53,93,83,72,30.08,30.06,30.03,10,10,8,9,3,13,0.00,6,,287
2013-8-13,61,58,54,55,53,52,100,89,78,30.08,30.06,30.02,10,9,2,10,4,13,0.00,6,,209
2013-8-14,71,62,52,59,54,51,100,78,55,30.05,30.02,29.99,10,5,0,12,6,13,0.00,5,Fog,156
2013-8-15,72,67,61,63,61,58,93,83,73,30.00,29.98,29.95,10,8,1,9,5,12,0.00,5,,229
2013-8-16,69,64,58,61,59,57,100,88,76,30.09,30.03,29.99,10,5,0,10,4,13,0.02,5,Fog-Rain,303
2013-8-17,68,61,54,61,57,54,100,89,78,30.10,30.06,30.03,10,6,0,15,3,18,0.00,4,Fog,301
2013-8-18,67,62,56,58,56,53,100,84,68,30.03,29.98,29.89,10,5,0,22,7,31,0.00,4,Fog,317
2013-8-19,65,57,49,55,52,48,100,84,67,29.96,29.93,29.89,9,4,0,24,10,37,0.00,4,Fog,338
2013-8-20,65,57,48,54,51,46,100,86,72,29.92,29.88,29.84,9,5,0,23,6,28,0.00,5,Fog,350
2013-8-21,60,56,51,55,54,50,96,88,80,29.98,29.94,29.89,10,5,0,12,4,14,0.00,7,Fog,176
2013-8-22,57,55,53,55,54,52,100,97,93,30.01,29.97,29.94,10,5,0,7,3,,0.01,7,Fog-Rain-Thunderstorm,289
2013-8-23,64,58,51,56,53,52,100,89,78,30.00,29.97,29.94,10,7,1,8,3,24,0.00,7,,321
2013-8-24,61,58,54,55,55,53,100,92,84,29.94,29.91,29.90,10,4,0,9,3,12,0.00,8,Fog,283
2013-8-25,64,59,54,58,55,54,100,92,84,29.99,29.94,29.90,10,4,0,14,8,17,0.06,8,Fog-Rain,161
2013-8-26,67,60,52,56,54,52,100,84,67,30.04,30.00,29.97,10,5,0,16,9,21,0.00,4,Fog,156
2013-8-27,69,60,51,59,55,49,93,80,67,29.98,29.91,29.88,10,10,10,12,5,15,0.00,2,,161
2013-8-28,70,65,59,63,60,57,97,83,68,29.94,29.91,29.86,10,9,4,14,6,17,0.00,6,Rain,153
2013-8-29,69,64,59,63,61,59,100,88,76,30.12,30.01,29.92,10,7,0,15,11,22,0.03,8,Fog-Rain,155
2013-8-30,69,63,57,63,60,56,100,91,81,30.13,30.10,30.05,10,4,0,9,3,13,0.00,6,Fog,315
2013-8-31,63,60,56,58,57,55,100,92,84,30.04,30.00,29.96,10,5,0,12,4,14,0.00,8,Fog,183